sensor_id;sensor_type;location;lat;lon;timestamp;temperature;humidity
24164;DHT22;12319;49.204;8.116;2024-02-26T00:00:31;9.70;73.70
24164;DHT22;12319;49.204;8.116;2024-02-26T00:02:57;9.60;74.00
24164;DHT22;12319;49.204;8.116;2024-02-26T00:05:23;9.70;74.00
24164;DHT22;12319;49.204;8.116;2024-02-26T00:07:48;9.60;74.30
24164;DHT22;12319;49.204;8.116;2024-02-26T00:10:14;9.70;74.60
24164;DHT22;12319;49.204;8.116;2024-02-26T00:12:40;9.60;74.50
24164;DHT22;12319;49.204;8.116;2024-02-26T00:15:09;9.70;74.60
24164;DHT22;12319;49.204;8.116;2024-02-26T00:17:35;9.70;74.90
24164;DHT22;12319;49.204;8.116;2024-02-26T00:20:02;9.70;74.80
24164;DHT22;12319;49.204;8.116;2024-02-26T00:22:30;9.80;74.90
24164;DHT22;12319;49.204;8.116;2024-02-26T00:24:56;9.70;75.10
24164;DHT22;12319;49.204;8.116;2024-02-26T00:27:21;9.80;75.40
24164;DHT22;12319;49.204;8.116;2024-02-26T00:29:47;9.80;74.70
24164;DHT22;12319;49.204;8.116;2024-02-26T00:32:12;9.80;74.80
24164;DHT22;12319;49.204;8.116;2024-02-26T00:34:38;9.80;74.70
24164;DHT22;12319;49.204;8.116;2024-02-26T00:37:03;9.80;75.00
24164;DHT22;12319;49.204;8.116;2024-02-26T00:39:29;9.80;75.40
24164;DHT22;12319;49.204;8.116;2024-02-26T00:41:54;9.90;75.90
24164;DHT22;12319;49.204;8.116;2024-02-26T00:44:20;9.90;76.40
24164;DHT22;12319;49.204;8.116;2024-02-26T00:46:45;9.90;77.30
24164;DHT22;12319;49.204;8.116;2024-02-26T00:49:11;9.90;77.60
24164;DHT22;12319;49.204;8.116;2024-02-26T00:51:36;9.90;78.10
24164;DHT22;12319;49.204;8.116;2024-02-26T00:54:02;9.80;79.20
24164;DHT22;12319;49.204;8.116;2024-02-26T00:56:28;9.90;80.90
24164;DHT22;12319;49.204;8.116;2024-02-26T00:58:53;9.90;81.30
24164;DHT22;12319;49.204;8.116;2024-02-26T01:01:19;9.90;82.10
24164;DHT22;12319;49.204;8.116;2024-02-26T01:03:45;9.80;82.90
24164;DHT22;12319;49.204;8.116;2024-02-26T01:06:10;9.90;84.50
24164;DHT22;12319;49.204;8.116;2024-02-26T01:08:36;9.80;84.60
24164;DHT22;12319;49.204;8.116;2024-02-26T01:11:03;9.80;85.20
24164;DHT22;12319;49.204;8.116;2024-02-26T01:13:28;9.80;85.80
24164;DHT22;12319;49.204;8.116;2024-02-26T01:15:54;9.80;85.90
24164;DHT22;12319;49.204;8.116;2024-02-26T01:18:20;9.80;85.60
24164;DHT22;12319;49.204;8.116;2024-02-26T01:20:46;9.80;85.30
24164;DHT22;12319;49.204;8.116;2024-02-26T01:23:12;9.80;86.30
24164;DHT22;12319;49.204;8.116;2024-02-26T01:25:38;9.80;87.10
24164;DHT22;12319;49.204;8.116;2024-02-26T01:28:04;9.70;87.80
24164;DHT22;12319;49.204;8.116;2024-02-26T01:30:30;9.70;88.80
24164;DHT22;12319;49.204;8.116;2024-02-26T01:32:56;9.70;89.00
24164;DHT22;12319;49.204;8.116;2024-02-26T01:35:21;9.70;89.50
24164;DHT22;12319;49.204;8.116;2024-02-26T01:37:47;9.60;89.30
24164;DHT22;12319;49.204;8.116;2024-02-26T01:40:13;9.60;90.10
24164;DHT22;12319;49.204;8.116;2024-02-26T01:42:43;9.60;90.50
24164;DHT22;12319;49.204;8.116;2024-02-26T01:45:14;9.60;90.60
24164;DHT22;12319;49.204;8.116;2024-02-26T01:47:41;9.60;91.10
24164;DHT22;12319;49.204;8.116;2024-02-26T01:50:08;9.60;90.10
24164;DHT22;12319;49.204;8.116;2024-02-26T01:52:34;9.60;90.50
24164;DHT22;12319;49.204;8.116;2024-02-26T01:54:59;9.50;90.90
24164;DHT22;12319;49.204;8.116;2024-02-26T01:57:27;9.70;90.80
24164;DHT22;12319;49.204;8.116;2024-02-26T01:59:53;9.60;91.00
24164;DHT22;12319;49.204;8.116;2024-02-26T02:02:19;9.50;91.10
24164;DHT22;12319;49.204;8.116;2024-02-26T02:04:45;9.50;91.30
24164;DHT22;12319;49.204;8.116;2024-02-26T02:07:11;9.60;91.40
24164;DHT22;12319;49.204;8.116;2024-02-26T02:09:38;9.60;91.40
24164;DHT22;12319;49.204;8.116;2024-02-26T02:12:04;9.60;91.40
24164;DHT22;12319;49.204;8.116;2024-02-26T02:14:31;9.60;91.70
24164;DHT22;12319;49.204;8.116;2024-02-26T02:16:57;9.60;92.10
24164;DHT22;12319;49.204;8.116;2024-02-26T02:19:22;9.70;92.60
24164;DHT22;12319;49.204;8.116;2024-02-26T02:21:48;9.70;93.20
24164;DHT22;12319;49.204;8.116;2024-02-26T02:24:13;9.70;93.60
24164;DHT22;12319;49.204;8.116;2024-02-26T02:26:39;9.70;93.40
24164;DHT22;12319;49.204;8.116;2024-02-26T02:29:05;9.70;93.80
24164;DHT22;12319;49.204;8.116;2024-02-26T02:31:31;9.70;94.80
24164;DHT22;12319;49.204;8.116;2024-02-26T02:33:57;9.70;95.00
24164;DHT22;12319;49.204;8.116;2024-02-26T02:36:22;9.70;95.10
24164;DHT22;12319;49.204;8.116;2024-02-26T02:38:49;9.60;95.60
24164;DHT22;12319;49.204;8.116;2024-02-26T02:41:18;9.60;95.90
24164;DHT22;12319;49.204;8.116;2024-02-26T02:43:44;9.60;96.40
24164;DHT22;12319;49.204;8.116;2024-02-26T02:46:10;9.50;98.10
24164;DHT22;12319;49.204;8.116;2024-02-26T02:48:38;9.50;98.10
24164;DHT22;12319;49.204;8.116;2024-02-26T02:51:04;9.50;98.50
24164;DHT22;12319;49.204;8.116;2024-02-26T02:53:30;9.50;98.30
24164;DHT22;12319;49.204;8.116;2024-02-26T02:55:55;9.40;98.70
24164;DHT22;12319;49.204;8.116;2024-02-26T02:58:21;9.40;99.20
24164;DHT22;12319;49.204;8.116;2024-02-26T03:00:46;9.30;99.50
24164;DHT22;12319;49.204;8.116;2024-02-26T03:03:12;9.30;99.50
24164;DHT22;12319;49.204;8.116;2024-02-26T03:05:37;9.30;99.70
24164;DHT22;12319;49.204;8.116;2024-02-26T03:08:03;10.00;99.90
24164;DHT22;12319;49.204;8.116;2024-02-26T03:10:29;9.30;99.90
24164;DHT22;12319;49.204;8.116;2024-02-26T03:12:55;9.20;99.90
24164;DHT22;12319;49.204;8.116;2024-02-26T03:15:21;9.20;99.90
24164;DHT22;12319;49.204;8.116;2024-02-26T03:17:47;9.20;99.90
24164;DHT22;12319;49.204;8.116;2024-02-26T03:20:12;9.20;99.90
24164;DHT22;12319;49.204;8.116;2024-02-26T03:22:41;9.20;99.90
24164;DHT22;12319;49.204;8.116;2024-02-26T03:25:07;9.10;99.90
24164;DHT22;12319;49.204;8.116;2024-02-26T03:27:33;9.00;99.90
24164;DHT22;12319;49.204;8.116;2024-02-26T03:29:58;9.00;99.90
24164;DHT22;12319;49.204;8.116;2024-02-26T03:32:24;9.00;99.90
24164;DHT22;12319;49.204;8.116;2024-02-26T03:34:49;9.00;99.90
24164;DHT22;12319;49.204;8.116;2024-02-26T03:37:15;9.00;99.90
24164;DHT22;12319;49.204;8.116;2024-02-26T03:39:40;9.00;99.90
24164;DHT22;12319;49.204;8.116;2024-02-26T03:42:06;9.00;99.90
24164;DHT22;12319;49.204;8.116;2024-02-26T03:44:31;9.00;99.90
24164;DHT22;12319;49.204;8.116;2024-02-26T03:46:57;9.00;99.90
24164;DHT22;12319;49.204;8.116;2024-02-26T03:49:22;9.00;99.90
24164;DHT22;12319;49.204;8.116;2024-02-26T03:51:48;9.10;99.90
24164;DHT22;12319;49.204;8.116;2024-02-26T03:54:14;9.00;99.90
24164;DHT22;12319;49.204;8.116;2024-02-26T03:56:39;9.00;99.90
24164;DHT22;12319;49.204;8.116;2024-02-26T03:59:05;8.90;99.90
24164;DHT22;12319;49.204;8.116;2024-02-26T04:01:30;8.90;99.90
24164;DHT22;12319;49.204;8.116;2024-02-26T04:03:56;8.90;99.90
24164;DHT22;12319;49.204;8.116;2024-02-26T04:06:22;8.80;99.90
24164;DHT22;12319;49.204;8.116;2024-02-26T04:08:48;8.80;99.90
24164;DHT22;12319;49.204;8.116;2024-02-26T04:11:14;8.80;99.90
24164;DHT22;12319;49.204;8.116;2024-02-26T04:13:43;8.80;99.90
24164;DHT22;12319;49.204;8.116;2024-02-26T04:16:11;8.80;99.90
24164;DHT22;12319;49.204;8.116;2024-02-26T04:18:37;8.70;99.90
24164;DHT22;12319;49.204;8.116;2024-02-26T04:21:03;8.70;99.90
24164;DHT22;12319;49.204;8.116;2024-02-26T04:23:30;8.70;99.90
24164;DHT22;12319;49.204;8.116;2024-02-26T04:25:56;8.80;99.90
24164;DHT22;12319;49.204;8.116;2024-02-26T04:28:21;9.80;99.90
24164;DHT22;12319;49.204;8.116;2024-02-26T04:30:47;8.80;99.90
24164;DHT22;12319;49.204;8.116;2024-02-26T04:33:13;8.80;99.90
24164;DHT22;12319;49.204;8.116;2024-02-26T04:35:39;8.80;99.90
24164;DHT22;12319;49.204;8.116;2024-02-26T04:38:05;8.80;99.90
24164;DHT22;12319;49.204;8.116;2024-02-26T04:40:30;8.80;99.90
24164;DHT22;12319;49.204;8.116;2024-02-26T04:42:56;10.20;99.90
24164;DHT22;12319;49.204;8.116;2024-02-26T04:45:22;8.80;99.90
24164;DHT22;12319;49.204;8.116;2024-02-26T04:47:48;8.80;99.90
24164;DHT22;12319;49.204;8.116;2024-02-26T04:50:13;8.80;99.90
24164;DHT22;12319;49.204;8.116;2024-02-26T04:52:39;8.80;99.90
24164;DHT22;12319;49.204;8.116;2024-02-26T04:55:04;8.80;99.90
24164;DHT22;12319;49.204;8.116;2024-02-26T04:57:30;8.80;99.90
24164;DHT22;12319;49.204;8.116;2024-02-26T04:59:56;8.80;99.90
24164;DHT22;12319;49.204;8.116;2024-02-26T05:02:21;8.80;99.90
24164;DHT22;12319;49.204;8.116;2024-02-26T05:04:47;8.90;99.90
24164;DHT22;12319;49.204;8.116;2024-02-26T05:07:12;8.80;99.90
24164;DHT22;12319;49.204;8.116;2024-02-26T05:09:38;8.80;99.90
24164;DHT22;12319;49.204;8.116;2024-02-26T05:12:04;8.80;99.90
24164;DHT22;12319;49.204;8.116;2024-02-26T05:14:29;8.80;99.90
24164;DHT22;12319;49.204;8.116;2024-02-26T05:16:55;8.80;99.90
24164;DHT22;12319;49.204;8.116;2024-02-26T05:19:21;8.90;99.90
24164;DHT22;12319;49.204;8.116;2024-02-26T05:21:47;8.90;99.90
24164;DHT22;12319;49.204;8.116;2024-02-26T05:24:14;8.90;99.90
24164;DHT22;12319;49.204;8.116;2024-02-26T05:26:41;8.90;99.90
24164;DHT22;12319;49.204;8.116;2024-02-26T05:29:06;8.90;99.90
24164;DHT22;12319;49.204;8.116;2024-02-26T05:31:32;8.90;99.90
24164;DHT22;12319;49.204;8.116;2024-02-26T05:33:57;8.90;99.90
24164;DHT22;12319;49.204;8.116;2024-02-26T05:36:23;9.00;99.90
24164;DHT22;12319;49.204;8.116;2024-02-26T05:38:49;9.00;99.90
24164;DHT22;12319;49.204;8.116;2024-02-26T05:41:17;9.00;99.90
24164;DHT22;12319;49.204;8.116;2024-02-26T05:43:54;9.00;99.90
24164;DHT22;12319;49.204;8.116;2024-02-26T05:46:20;9.00;99.90
24164;DHT22;12319;49.204;8.116;2024-02-26T05:48:51;9.00;99.90
24164;DHT22;12319;49.204;8.116;2024-02-26T05:51:17;9.10;99.90
24164;DHT22;12319;49.204;8.116;2024-02-26T05:53:43;9.00;99.90
24164;DHT22;12319;49.204;8.116;2024-02-26T05:58:35;9.10;99.90
24164;DHT22;12319;49.204;8.116;2024-02-26T06:01:00;9.10;99.90
24164;DHT22;12319;49.204;8.116;2024-02-26T06:03:26;9.10;99.90
24164;DHT22;12319;49.204;8.116;2024-02-26T06:05:52;9.10;99.90
24164;DHT22;12319;49.204;8.116;2024-02-26T06:08:18;9.10;99.90
24164;DHT22;12319;49.204;8.116;2024-02-26T06:10:43;9.10;99.90
24164;DHT22;12319;49.204;8.116;2024-02-26T06:13:09;9.00;99.90
24164;DHT22;12319;49.204;8.116;2024-02-26T06:15:34;9.00;99.90
24164;DHT22;12319;49.204;8.116;2024-02-26T06:18:00;9.10;99.90
24164;DHT22;12319;49.204;8.116;2024-02-26T06:20:26;9.00;99.90
24164;DHT22;12319;49.204;8.116;2024-02-26T06:22:51;9.00;99.90
24164;DHT22;12319;49.204;8.116;2024-02-26T06:25:17;9.00;99.90
24164;DHT22;12319;49.204;8.116;2024-02-26T06:27:42;9.00;99.90
24164;DHT22;12319;49.204;8.116;2024-02-26T06:30:08;9.00;99.90
24164;DHT22;12319;49.204;8.116;2024-02-26T06:32:36;9.00;99.90
24164;DHT22;12319;49.204;8.116;2024-02-26T06:35:02;9.00;99.90
24164;DHT22;12319;49.204;8.116;2024-02-26T06:37:32;9.00;99.90
24164;DHT22;12319;49.204;8.116;2024-02-26T06:39:59;9.00;99.90
24164;DHT22;12319;49.204;8.116;2024-02-26T06:42:25;9.00;99.90
24164;DHT22;12319;49.204;8.116;2024-02-26T06:44:50;9.00;99.90
24164;DHT22;12319;49.204;8.116;2024-02-26T06:47:16;9.00;99.90
24164;DHT22;12319;49.204;8.116;2024-02-26T06:49:41;9.00;99.90
24164;DHT22;12319;49.204;8.116;2024-02-26T06:52:07;9.00;99.90
24164;DHT22;12319;49.204;8.116;2024-02-26T06:54:32;8.90;99.90
24164;DHT22;12319;49.204;8.116;2024-02-26T06:56:58;9.00;99.90
24164;DHT22;12319;49.204;8.116;2024-02-26T06:59:24;9.00;99.90
24164;DHT22;12319;49.204;8.116;2024-02-26T07:01:49;9.00;99.90
24164;DHT22;12319;49.204;8.116;2024-02-26T07:04:15;9.00;99.90
24164;DHT22;12319;49.204;8.116;2024-02-26T07:06:40;9.10;99.90
24164;DHT22;12319;49.204;8.116;2024-02-26T07:09:06;9.10;99.90
24164;DHT22;12319;49.204;8.116;2024-02-26T07:11:32;9.20;99.90
24164;DHT22;12319;49.204;8.116;2024-02-26T07:13:58;9.20;99.90
24164;DHT22;12319;49.204;8.116;2024-02-26T07:16:23;9.20;99.90
24164;DHT22;12319;49.204;8.116;2024-02-26T07:18:49;9.30;99.90
24164;DHT22;12319;49.204;8.116;2024-02-26T07:21:15;9.30;99.90
24164;DHT22;12319;49.204;8.116;2024-02-26T07:23:40;9.30;99.90
24164;DHT22;12319;49.204;8.116;2024-02-26T07:26:06;9.30;99.90
24164;DHT22;12319;49.204;8.116;2024-02-26T07:28:33;9.30;99.90
24164;DHT22;12319;49.204;8.116;2024-02-26T07:30:59;9.30;99.90
24164;DHT22;12319;49.204;8.116;2024-02-26T07:33:24;9.30;99.90
24164;DHT22;12319;49.204;8.116;2024-02-26T07:35:50;9.30;99.90
24164;DHT22;12319;49.204;8.116;2024-02-26T07:38:15;9.30;99.90
24164;DHT22;12319;49.204;8.116;2024-02-26T07:40:41;9.30;99.90
24164;DHT22;12319;49.204;8.116;2024-02-26T07:43:07;9.30;99.90
24164;DHT22;12319;49.204;8.116;2024-02-26T07:45:32;9.20;99.90
24164;DHT22;12319;49.204;8.116;2024-02-26T07:47:58;9.20;99.90
24164;DHT22;12319;49.204;8.116;2024-02-26T07:50:23;9.30;99.90
24164;DHT22;12319;49.204;8.116;2024-02-26T07:52:49;9.20;99.90
24164;DHT22;12319;49.204;8.116;2024-02-26T07:55:16;9.20;99.90
24164;DHT22;12319;49.204;8.116;2024-02-26T07:57:42;9.20;99.90
24164;DHT22;12319;49.204;8.116;2024-02-26T08:00:09;9.30;99.90
24164;DHT22;12319;49.204;8.116;2024-02-26T08:02:36;9.30;99.90
24164;DHT22;12319;49.204;8.116;2024-02-26T08:05:01;9.30;99.90
24164;DHT22;12319;49.204;8.116;2024-02-26T08:07:27;9.40;99.90
24164;DHT22;12319;49.204;8.116;2024-02-26T08:09:54;9.30;99.90
24164;DHT22;12319;49.204;8.116;2024-02-26T08:12:19;9.40;99.90
24164;DHT22;12319;49.204;8.116;2024-02-26T08:14:45;9.60;99.90
24164;DHT22;12319;49.204;8.116;2024-02-26T08:17:10;9.70;99.90
24164;DHT22;12319;49.204;8.116;2024-02-26T08:19:36;9.80;99.90
24164;DHT22;12319;49.204;8.116;2024-02-26T08:22:02;10.00;99.90
24164;DHT22;12319;49.204;8.116;2024-02-26T08:24:28;10.10;99.90
24164;DHT22;12319;49.204;8.116;2024-02-26T08:26:53;10.20;99.90
24164;DHT22;12319;49.204;8.116;2024-02-26T08:29:19;10.20;99.90
24164;DHT22;12319;49.204;8.116;2024-02-26T08:31:45;10.20;99.90
24164;DHT22;12319;49.204;8.116;2024-02-26T08:34:10;10.20;99.90
24164;DHT22;12319;49.204;8.116;2024-02-26T08:36:36;10.10;99.90
24164;DHT22;12319;49.204;8.116;2024-02-26T08:39:02;10.20;99.90
24164;DHT22;12319;49.204;8.116;2024-02-26T08:41:27;10.20;99.90
24164;DHT22;12319;49.204;8.116;2024-02-26T08:43:53;10.20;99.90
24164;DHT22;12319;49.204;8.116;2024-02-26T08:46:20;10.40;99.90
24164;DHT22;12319;49.204;8.116;2024-02-26T08:48:45;10.40;99.90
24164;DHT22;12319;49.204;8.116;2024-02-26T08:51:11;10.50;99.90
24164;DHT22;12319;49.204;8.116;2024-02-26T08:53:36;10.60;99.90
24164;DHT22;12319;49.204;8.116;2024-02-26T08:56:02;10.70;99.90
24164;DHT22;12319;49.204;8.116;2024-02-26T08:58:28;10.80;99.90
24164;DHT22;12319;49.204;8.116;2024-02-26T09:00:54;10.80;99.90
24164;DHT22;12319;49.204;8.116;2024-02-26T09:03:20;10.90;99.90
24164;DHT22;12319;49.204;8.116;2024-02-26T09:05:45;11.00;99.90
24164;DHT22;12319;49.204;8.116;2024-02-26T09:08:11;11.20;99.90
24164;DHT22;12319;49.204;8.116;2024-02-26T09:10:38;11.20;99.90
24164;DHT22;12319;49.204;8.116;2024-02-26T09:13:03;11.30;99.90
24164;DHT22;12319;49.204;8.116;2024-02-26T09:15:29;11.30;99.90
24164;DHT22;12319;49.204;8.116;2024-02-26T09:17:55;11.30;99.90
24164;DHT22;12319;49.204;8.116;2024-02-26T09:20:21;11.30;99.90
24164;DHT22;12319;49.204;8.116;2024-02-26T09:22:47;11.20;99.90
24164;DHT22;12319;49.204;8.116;2024-02-26T09:25:13;11.20;99.90
24164;DHT22;12319;49.204;8.116;2024-02-26T09:27:41;11.20;99.90
24164;DHT22;12319;49.204;8.116;2024-02-26T09:30:09;11.30;99.90
24164;DHT22;12319;49.204;8.116;2024-02-26T09:32:35;11.40;99.90
24164;DHT22;12319;49.204;8.116;2024-02-26T09:35:01;11.50;99.90
24164;DHT22;12319;49.204;8.116;2024-02-26T09:37:26;11.60;99.90
24164;DHT22;12319;49.204;8.116;2024-02-26T09:39:52;11.60;99.90
24164;DHT22;12319;49.204;8.116;2024-02-26T09:42:19;11.70;99.90
24164;DHT22;12319;49.204;8.116;2024-02-26T09:44:45;11.80;99.90
24164;DHT22;12319;49.204;8.116;2024-02-26T09:47:14;11.80;99.90
24164;DHT22;12319;49.204;8.116;2024-02-26T09:49:42;11.90;99.90
24164;DHT22;12319;49.204;8.116;2024-02-26T09:52:08;12.00;99.90
24164;DHT22;12319;49.204;8.116;2024-02-26T09:54:35;12.10;99.90
24164;DHT22;12319;49.204;8.116;2024-02-26T09:57:03;12.30;99.90
24164;DHT22;12319;49.204;8.116;2024-02-26T09:59:39;12.40;99.90
24164;DHT22;12319;49.204;8.116;2024-02-26T10:02:09;12.50;99.90
24164;DHT22;12319;49.204;8.116;2024-02-26T10:04:36;12.60;99.90
24164;DHT22;12319;49.204;8.116;2024-02-26T10:07:03;12.60;99.90
24164;DHT22;12319;49.204;8.116;2024-02-26T10:09:31;12.60;99.90
24164;DHT22;12319;49.204;8.116;2024-02-26T10:11:57;12.60;99.90
24164;DHT22;12319;49.204;8.116;2024-02-26T10:14:22;12.50;99.90
24164;DHT22;12319;49.204;8.116;2024-02-26T10:16:50;12.50;99.90
24164;DHT22;12319;49.204;8.116;2024-02-26T10:19:26;12.50;99.90
24164;DHT22;12319;49.204;8.116;2024-02-26T10:22:00;12.60;99.90
24164;DHT22;12319;49.204;8.116;2024-02-26T10:24:27;12.60;99.90
24164;DHT22;12319;49.204;8.116;2024-02-26T10:26:54;12.80;99.90
24164;DHT22;12319;49.204;8.116;2024-02-26T10:29:21;12.90;99.90
24164;DHT22;12319;49.204;8.116;2024-02-26T10:31:47;12.80;99.90
24164;DHT22;12319;49.204;8.116;2024-02-26T10:34:14;12.80;99.90
24164;DHT22;12319;49.204;8.116;2024-02-26T10:36:40;12.80;99.90
24164;DHT22;12319;49.204;8.116;2024-02-26T10:39:11;12.80;99.90
24164;DHT22;12319;49.204;8.116;2024-02-26T10:41:37;12.70;99.90
24164;DHT22;12319;49.204;8.116;2024-02-26T10:44:04;12.70;99.90
24164;DHT22;12319;49.204;8.116;2024-02-26T10:46:29;12.60;99.90
24164;DHT22;12319;49.204;8.116;2024-02-26T10:48:56;12.80;99.90
24164;DHT22;12319;49.204;8.116;2024-02-26T10:51:29;12.70;99.90
24164;DHT22;12319;49.204;8.116;2024-02-26T10:53:59;12.80;99.90
24164;DHT22;12319;49.204;8.116;2024-02-26T10:56:29;12.80;99.90
24164;DHT22;12319;49.204;8.116;2024-02-26T10:58:59;12.80;99.90
24164;DHT22;12319;49.204;8.116;2024-02-26T11:01:25;12.80;99.90
24164;DHT22;12319;49.204;8.116;2024-02-26T11:03:52;12.80;99.90
24164;DHT22;12319;49.204;8.116;2024-02-26T11:06:22;13.00;99.90
24164;DHT22;12319;49.204;8.116;2024-02-26T11:08:50;13.00;99.90
24164;DHT22;12319;49.204;8.116;2024-02-26T11:11:17;13.10;99.90
24164;DHT22;12319;49.204;8.116;2024-02-26T11:13:45;13.30;99.90
24164;DHT22;12319;49.204;8.116;2024-02-26T11:16:13;13.50;99.90
24164;DHT22;12319;49.204;8.116;2024-02-26T11:18:40;13.70;99.90
24164;DHT22;12319;49.204;8.116;2024-02-26T11:21:07;13.80;99.90
24164;DHT22;12319;49.204;8.116;2024-02-26T11:23:34;13.90;99.90
24164;DHT22;12319;49.204;8.116;2024-02-26T11:26:04;14.00;99.90
24164;DHT22;12319;49.204;8.116;2024-02-26T11:28:33;14.10;99.90
24164;DHT22;12319;49.204;8.116;2024-02-26T11:31:00;14.30;99.90
24164;DHT22;12319;49.204;8.116;2024-02-26T11:33:28;14.30;99.60
24164;DHT22;12319;49.204;8.116;2024-02-26T11:35:54;14.30;99.90
24164;DHT22;12319;49.204;8.116;2024-02-26T11:38:21;14.30;99.20
24164;DHT22;12319;49.204;8.116;2024-02-26T11:40:47;14.30;99.00
24164;DHT22;12319;49.204;8.116;2024-02-26T11:43:13;14.20;99.70
24164;DHT22;12319;49.204;8.116;2024-02-26T11:48:24;14.20;99.90
24164;DHT22;12319;49.204;8.116;2024-02-26T11:50:54;14.20;99.70
24164;DHT22;12319;49.204;8.116;2024-02-26T11:53:27;14.20;99.50
24164;DHT22;12319;49.204;8.116;2024-02-26T11:59:03;14.10;99.40
24164;DHT22;12319;49.204;8.116;2024-02-26T12:04:05;14.10;99.90
24164;DHT22;12319;49.204;8.116;2024-02-26T12:06:33;14.10;99.90
24164;DHT22;12319;49.204;8.116;2024-02-26T12:09:05;14.20;99.70
24164;DHT22;12319;49.204;8.116;2024-02-26T12:11:31;14.30;99.60
24164;DHT22;12319;49.204;8.116;2024-02-26T12:13:56;14.60;99.30
24164;DHT22;12319;49.204;8.116;2024-02-26T12:16:38;14.50;99.20
24164;DHT22;12319;49.204;8.116;2024-02-26T12:19:05;14.70;98.50
24164;DHT22;12319;49.204;8.116;2024-02-26T12:21:36;14.70;98.40
24164;DHT22;12319;49.204;8.116;2024-02-26T12:24:14;14.80;97.70
24164;DHT22;12319;49.204;8.116;2024-02-26T12:26:43;15.00;98.30
24164;DHT22;12319;49.204;8.116;2024-02-26T12:29:09;15.20;97.70
24164;DHT22;12319;49.204;8.116;2024-02-26T12:31:36;15.50;96.60
24164;DHT22;12319;49.204;8.116;2024-02-26T12:34:03;15.60;96.90
24164;DHT22;12319;49.204;8.116;2024-02-26T12:36:28;15.60;94.90
24164;DHT22;12319;49.204;8.116;2024-02-26T12:38:54;15.60;94.60
24164;DHT22;12319;49.204;8.116;2024-02-26T12:41:21;15.50;95.00
24164;DHT22;12319;49.204;8.116;2024-02-26T12:43:47;15.50;95.40
24164;DHT22;12319;49.204;8.116;2024-02-26T12:48:43;15.50;94.50
24164;DHT22;12319;49.204;8.116;2024-02-26T12:51:09;15.50;94.50
24164;DHT22;12319;49.204;8.116;2024-02-26T12:53:35;15.50;94.40
24164;DHT22;12319;49.204;8.116;2024-02-26T12:56:03;15.40;94.50
24164;DHT22;12319;49.204;8.116;2024-02-26T12:58:29;15.40;94.50
24164;DHT22;12319;49.204;8.116;2024-02-26T13:00:55;15.30;94.60
24164;DHT22;12319;49.204;8.116;2024-02-26T13:03:22;15.30;94.70
24164;DHT22;12319;49.204;8.116;2024-02-26T13:05:48;15.30;94.30
24164;DHT22;12319;49.204;8.116;2024-02-26T13:08:18;15.30;94.10
24164;DHT22;12319;49.204;8.116;2024-02-26T13:10:46;15.40;94.00
24164;DHT22;12319;49.204;8.116;2024-02-26T13:13:14;15.30;94.00
24164;DHT22;12319;49.204;8.116;2024-02-26T13:15:41;15.40;94.50
24164;DHT22;12319;49.204;8.116;2024-02-26T13:18:10;15.40;93.50
24164;DHT22;12319;49.204;8.116;2024-02-26T13:20:36;15.40;93.30
24164;DHT22;12319;49.204;8.116;2024-02-26T13:25:27;15.40;93.70
24164;DHT22;12319;49.204;8.116;2024-02-26T13:28:03;15.40;93.00
24164;DHT22;12319;49.204;8.116;2024-02-26T13:30:29;15.50;93.30
24164;DHT22;12319;49.204;8.116;2024-02-26T13:32:54;15.70;93.00
24164;DHT22;12319;49.204;8.116;2024-02-26T13:35:20;16.00;92.40
24164;DHT22;12319;49.204;8.116;2024-02-26T13:37:46;16.20;89.60
24164;DHT22;12319;49.204;8.116;2024-02-26T13:40:11;16.30;88.50
24164;DHT22;12319;49.204;8.116;2024-02-26T13:42:38;16.20;86.10
24164;DHT22;12319;49.204;8.116;2024-02-26T13:45:04;16.20;86.60
24164;DHT22;12319;49.204;8.116;2024-02-26T13:47:34;16.00;86.80
24164;DHT22;12319;49.204;8.116;2024-02-26T13:50:00;15.90;85.80
24164;DHT22;12319;49.204;8.116;2024-02-26T13:52:26;15.80;86.60
24164;DHT22;12319;49.204;8.116;2024-02-26T13:54:52;15.80;86.20
24164;DHT22;12319;49.204;8.116;2024-02-26T13:57:18;15.70;85.60
24164;DHT22;12319;49.204;8.116;2024-02-26T13:59:44;15.60;86.20
24164;DHT22;12319;49.204;8.116;2024-02-26T14:02:10;15.50;86.50
24164;DHT22;12319;49.204;8.116;2024-02-26T14:04:36;15.50;86.50
24164;DHT22;12319;49.204;8.116;2024-02-26T14:07:02;15.40;87.70
24164;DHT22;12319;49.204;8.116;2024-02-26T14:09:28;15.40;88.00
24164;DHT22;12319;49.204;8.116;2024-02-26T14:11:54;15.50;89.10
24164;DHT22;12319;49.204;8.116;2024-02-26T14:14:20;15.40;86.90
24164;DHT22;12319;49.204;8.116;2024-02-26T14:16:45;15.40;86.20
24164;DHT22;12319;49.204;8.116;2024-02-26T14:19:11;15.30;86.10
24164;DHT22;12319;49.204;8.116;2024-02-26T14:21:37;15.30;85.30
24164;DHT22;12319;49.204;8.116;2024-02-26T14:24:02;15.20;86.90
24164;DHT22;12319;49.204;8.116;2024-02-26T14:26:29;15.10;88.20
24164;DHT22;12319;49.204;8.116;2024-02-26T14:28:54;15.00;88.60
24164;DHT22;12319;49.204;8.116;2024-02-26T14:31:20;15.00;88.10
24164;DHT22;12319;49.204;8.116;2024-02-26T14:33:46;14.90;88.40
24164;DHT22;12319;49.204;8.116;2024-02-26T14:36:11;14.90;88.10
24164;DHT22;12319;49.204;8.116;2024-02-26T14:38:37;14.80;88.10
24164;DHT22;12319;49.204;8.116;2024-02-26T14:41:05;14.70;88.80
24164;DHT22;12319;49.204;8.116;2024-02-26T14:43:35;14.70;89.30
24164;DHT22;12319;49.204;8.116;2024-02-26T14:46:03;14.70;90.00
24164;DHT22;12319;49.204;8.116;2024-02-26T14:48:30;14.60;90.90
24164;DHT22;12319;49.204;8.116;2024-02-26T14:50:56;14.70;91.50
24164;DHT22;12319;49.204;8.116;2024-02-26T14:53:21;14.70;91.60
24164;DHT22;12319;49.204;8.116;2024-02-26T14:55:47;14.70;91.90
24164;DHT22;12319;49.204;8.116;2024-02-26T14:58:12;14.60;91.80
24164;DHT22;12319;49.204;8.116;2024-02-26T15:00:39;14.60;92.20
24164;DHT22;12319;49.204;8.116;2024-02-26T15:03:04;14.60;92.20
24164;DHT22;12319;49.204;8.116;2024-02-26T15:05:32;14.60;92.20
24164;DHT22;12319;49.204;8.116;2024-02-26T15:07:57;14.60;92.30
24164;DHT22;12319;49.204;8.116;2024-02-26T15:10:24;14.50;92.70
24164;DHT22;12319;49.204;8.116;2024-02-26T15:12:50;14.50;92.90
24164;DHT22;12319;49.204;8.116;2024-02-26T15:15:16;14.60;92.60
24164;DHT22;12319;49.204;8.116;2024-02-26T15:17:41;14.80;92.00
24164;DHT22;12319;49.204;8.116;2024-02-26T15:20:07;14.60;91.10
24164;DHT22;12319;49.204;8.116;2024-02-26T15:22:33;14.60;90.40
24164;DHT22;12319;49.204;8.116;2024-02-26T15:24:59;14.60;90.30
24164;DHT22;12319;49.204;8.116;2024-02-26T15:27:25;14.60;90.00
24164;DHT22;12319;49.204;8.116;2024-02-26T15:29:50;14.50;89.70
24164;DHT22;12319;49.204;8.116;2024-02-26T15:32:23;14.50;90.30
24164;DHT22;12319;49.204;8.116;2024-02-26T15:34:50;14.50;90.80
24164;DHT22;12319;49.204;8.116;2024-02-26T15:37:16;14.50;90.60
24164;DHT22;12319;49.204;8.116;2024-02-26T15:39:41;14.40;90.70
24164;DHT22;12319;49.204;8.116;2024-02-26T15:42:07;14.40;90.70
24164;DHT22;12319;49.204;8.116;2024-02-26T15:44:32;14.40;90.70
24164;DHT22;12319;49.204;8.116;2024-02-26T15:47:01;14.40;90.50
24164;DHT22;12319;49.204;8.116;2024-02-26T15:49:26;14.30;89.50